createdAt,value
2022-09-30T00:00:17.429Z,1.40
2022-09-30T00:02:44.668Z,1.34
2022-09-30T00:05:11.170Z,1.34
2022-09-30T00:07:37.565Z,1.36
2022-09-30T00:10:04.407Z,1.43
2022-09-30T00:12:30.982Z,1.40
2022-09-30T00:14:57.436Z,1.38
2022-09-30T00:17:23.886Z,1.32
2022-09-30T00:19:50.345Z,1.21
2022-09-30T00:22:16.748Z,1.17
2022-09-30T00:24:43.149Z,1.21
2022-09-30T00:27:09.558Z,1.19
2022-09-30T00:29:35.975Z,1.25
2022-09-30T00:32:02.442Z,1.33
2022-09-30T00:34:28.910Z,1.34
2022-09-30T00:36:58.387Z,1.31
2022-09-30T00:39:25.743Z,1.27
2022-09-30T00:41:53.756Z,1.27
2022-09-30T00:44:58.898Z,1.28
2022-09-30T00:47:25.312Z,1.35
2022-09-30T00:49:51.769Z,1.30
2022-09-30T00:52:18.417Z,1.22
2022-09-30T00:54:44.903Z,1.24
2022-09-30T00:57:11.301Z,1.26
2022-09-30T00:59:38.999Z,1.23
2022-09-30T01:02:05.890Z,1.17
2022-09-30T01:04:32.385Z,1.14
2022-09-30T01:06:59.605Z,1.11
2022-09-30T01:09:26.129Z,1.08
2022-09-30T01:11:52.550Z,1.04
2022-09-30T01:14:21.653Z,1.00
2022-09-30T01:16:48.062Z,1.04
2022-09-30T01:19:17.560Z,1.05
2022-09-30T01:22:02.982Z,1.08
2022-09-30T01:24:44.652Z,1.18
2022-09-30T01:27:29.941Z,1.09
2022-09-30T01:29:56.372Z,1.05
2022-09-30T01:32:45.165Z,1.02
2022-09-30T01:35:15.516Z,0.95
2022-09-30T01:37:41.863Z,0.90
2022-09-30T01:40:22.669Z,0.90
2022-09-30T01:42:49.979Z,0.93
2022-09-30T01:45:17.498Z,0.89
2022-09-30T01:48:13.458Z,0.89
2022-09-30T01:50:44.734Z,0.87
2022-09-30T01:53:15.230Z,0.80
2022-09-30T01:55:44.646Z,0.75
2022-09-30T01:58:14.048Z,0.71
2022-09-30T02:00:41.122Z,0.70
2022-09-30T02:03:10.569Z,0.65
2022-09-30T02:05:38.291Z,0.69
2022-09-30T02:08:06.201Z,0.72
2022-09-30T02:10:32.697Z,0.75
2022-09-30T02:13:05.220Z,0.80
2022-09-30T02:15:38.464Z,0.77
2022-09-30T02:18:10.811Z,0.75
2022-09-30T02:20:38.375Z,0.75
2022-09-30T02:23:04.915Z,0.71
2022-09-30T02:25:34.055Z,0.64
2022-09-30T02:28:01.779Z,0.58
2022-09-30T02:30:28.570Z,0.59
2022-09-30T02:33:01.486Z,0.54
2022-09-30T02:35:32.428Z,0.49
2022-09-30T02:37:59.976Z,0.50
2022-09-30T02:40:26.388Z,0.50
2022-09-30T02:42:53.058Z,0.49
2022-09-30T02:45:20.793Z,0.47
2022-09-30T02:47:50.182Z,0.46
2022-09-30T02:50:29.091Z,0.50
2022-09-30T02:53:27.973Z,0.49
2022-09-30T02:56:20.804Z,0.51
2022-09-30T02:58:47.211Z,0.48
2022-09-30T03:01:14.417Z,0.30
2022-09-30T03:03:40.920Z,0.24
2022-09-30T03:06:07.403Z,0.16
2022-09-30T03:08:33.809Z,0.15
2022-09-30T03:11:00.244Z,0.25
2022-09-30T03:13:49.985Z,0.24
2022-09-30T03:16:19.667Z,0.25
2022-09-30T03:18:52.635Z,0.19
2022-09-30T03:21:19.039Z,0.10
2022-09-30T03:23:57.655Z,0.04
2022-09-30T03:26:29.133Z,0.03
2022-09-30T03:29:24.898Z,0.01
2022-09-30T03:31:57.889Z,0.09
2022-09-30T03:34:33.270Z,0.12
2022-09-30T03:37:06.716Z,0.09
2022-09-30T03:39:42.223Z,0.05
2022-09-30T03:42:29.234Z,-0.04
2022-09-30T03:45:04.954Z,-0.08
2022-09-30T03:47:32.517Z,-0.06
2022-09-30T03:50:00.399Z,-0.07
2022-09-30T03:52:26.831Z,-0.07
2022-09-30T03:54:54.717Z,-0.08
2022-09-30T03:57:21.372Z,-0.04
2022-09-30T03:59:47.793Z,-0.02
2022-09-30T04:02:14.259Z,0.02
2022-09-30T04:04:43.605Z,0.05
2022-09-30T04:07:10.439Z,0.07
2022-09-30T04:09:37.303Z,0.02
2022-09-30T04:12:03.809Z,-0.05
2022-09-30T04:14:30.228Z,-0.03
2022-09-30T04:16:56.806Z,-0.06
2022-09-30T04:19:23.312Z,-0.09
2022-09-30T04:21:53.250Z,-0.12
2022-09-30T04:24:20.279Z,-0.16
2022-09-30T04:26:46.712Z,-0.24
2022-09-30T04:29:13.144Z,-0.28
2022-09-30T04:31:39.607Z,-0.32
2022-09-30T04:34:06.277Z,-0.33
2022-09-30T04:36:32.684Z,-0.33
2022-09-30T04:38:59.135Z,-0.35
2022-09-30T04:41:25.916Z,-0.37
2022-09-30T04:43:52.354Z,-0.37
2022-09-30T04:46:19.906Z,-0.36
2022-09-30T04:48:46.884Z,-0.34
2022-09-30T04:51:13.729Z,-0.35
2022-09-30T04:53:40.216Z,-0.32
2022-09-30T04:56:06.882Z,-0.22
2022-09-30T04:58:36.794Z,-0.23
2022-09-30T05:01:04.415Z,-0.23
2022-09-30T05:03:30.851Z,-0.21
2022-09-30T05:05:57.517Z,-0.23
2022-09-30T05:08:24.038Z,-0.28
2022-09-30T05:10:57.804Z,-0.40
2022-09-30T05:13:30.886Z,-0.44
2022-09-30T05:15:57.380Z,-0.35
2022-09-30T05:18:26.388Z,-0.46
2022-09-30T05:20:53.371Z,-0.50
2022-09-30T05:23:20.081Z,-0.51
2022-09-30T05:25:46.743Z,-0.54
2022-09-30T05:28:13.445Z,-0.53
2022-09-30T05:30:41.943Z,-0.53
2022-09-30T05:33:08.440Z,-0.54
2022-09-30T05:35:34.942Z,-0.52
2022-09-30T05:38:03.397Z,-0.51
2022-09-30T05:40:29.928Z,-0.51
2022-09-30T05:42:56.928Z,-0.48
2022-09-30T05:45:23.487Z,-0.49
2022-09-30T05:47:53.485Z,-0.46
2022-09-30T05:50:20.649Z,-0.42
2022-09-30T05:52:47.143Z,-0.37
2022-09-30T05:55:13.673Z,-0.26
2022-09-30T05:57:40.075Z,-0.19
2022-09-30T06:00:06.803Z,-0.12
2022-09-30T06:02:33.819Z,-0.09
2022-09-30T06:05:00.287Z,-0.09
2022-09-30T06:07:26.687Z,-0.06
2022-09-30T06:09:53.063Z,-0.01
2022-09-30T06:12:19.472Z,0.04
2022-09-30T06:14:45.873Z,0.05
2022-09-30T06:17:12.358Z,0.11
2022-09-30T06:19:38.857Z,0.20
2022-09-30T06:22:05.302Z,0.32
2022-09-30T06:24:31.690Z,0.42
2022-09-30T06:26:58.150Z,0.58
2022-09-30T06:29:24.673Z,0.77
2022-09-30T06:31:51.148Z,0.96
2022-09-30T06:34:17.564Z,1.14
2022-09-30T06:36:43.986Z,1.32
2022-09-30T06:39:13.693Z,1.45
2022-09-30T06:41:44.161Z,1.63
2022-09-30T06:44:10.737Z,1.84
2022-09-30T06:46:47.094Z,2.10
2022-09-30T06:49:17.450Z,2.38
2022-09-30T06:51:43.897Z,2.54
2022-09-30T06:54:10.567Z,2.74
2022-09-30T06:56:37.151Z,2.95
2022-09-30T06:59:03.597Z,3.23
2022-09-30T07:01:30.145Z,3.46
2022-09-30T07:03:58.174Z,3.65
2022-09-30T07:06:26.030Z,3.75
2022-09-30T07:08:53.613Z,3.92
2022-09-30T07:11:20.124Z,4.05
2022-09-30T07:13:46.954Z,4.13
2022-09-30T07:16:14.174Z,4.32
2022-09-30T07:18:42.785Z,4.43
2022-09-30T07:21:09.836Z,4.54
2022-09-30T07:23:36.230Z,4.67
2022-09-30T07:26:04.634Z,4.85
2022-09-30T07:28:33.930Z,5.03
2022-09-30T07:31:30.790Z,5.21
2022-09-30T07:33:51.326Z,5.26
2022-09-30T07:36:18.828Z,5.23
2022-09-30T07:38:45.697Z,5.40
2022-09-30T07:41:13.158Z,5.55
2022-09-30T07:43:40.144Z,5.80
2022-09-30T07:46:10.287Z,5.90
2022-09-30T07:48:51.881Z,6.12
2022-09-30T07:51:19.457Z,6.34
2022-09-30T07:53:47.057Z,6.49
2022-09-30T07:56:14.478Z,6.62
2022-09-30T07:58:41.067Z,6.75
2022-09-30T08:01:07.527Z,6.89
2022-09-30T08:03:35.054Z,7.06
2022-09-30T08:06:12.830Z,7.22
2022-09-30T08:08:39.446Z,7.29
2022-09-30T08:11:06.208Z,7.48
2022-09-30T08:13:32.731Z,7.37
2022-09-30T08:15:59.231Z,7.57
2022-09-30T08:18:25.744Z,7.55
2022-09-30T08:20:52.155Z,7.77
2022-09-30T08:23:18.636Z,7.96
2022-09-30T08:25:45.088Z,8.15
2022-09-30T08:28:11.771Z,8.26
2022-09-30T08:30:38.253Z,8.50
2022-09-30T08:33:04.825Z,8.64
2022-09-30T08:35:31.378Z,8.89
2022-09-30T08:37:57.911Z,9.08
2022-09-30T08:40:31.739Z,9.39
2022-09-30T08:43:24.412Z,9.62
2022-09-30T08:45:53.880Z,9.66
2022-09-30T08:48:26.471Z,9.66
2022-09-30T08:50:56.031Z,9.87
2022-09-30T08:53:26.759Z,10.06
2022-09-30T08:55:53.233Z,10.37
2022-09-30T08:58:23.886Z,10.66
2022-09-30T09:00:50.507Z,10.88
2022-09-30T09:03:20.462Z,11.32
2022-09-30T09:05:56.674Z,12.27
2022-09-30T09:08:29.944Z,13.12
2022-09-30T09:11:02.848Z,14.37
2022-09-30T09:13:47.976Z,14.84
2022-09-30T09:16:26.550Z,15.53
2022-09-30T09:18:56.097Z,16.80
2022-09-30T09:21:32.193Z,15.71
2022-09-30T09:24:00.374Z,16.31
2022-09-30T09:26:26.944Z,16.63
2022-09-30T09:29:24.725Z,17.71
2022-09-30T09:31:51.400Z,18.68
2022-09-30T09:34:17.850Z,19.64
2022-09-30T09:36:56.591Z,19.99
2022-09-30T09:39:26.047Z,20.38
2022-09-30T09:42:17.124Z,21.55
2022-09-30T09:45:02.163Z,22.00
2022-09-30T09:47:28.583Z,22.43
2022-09-30T09:50:03.520Z,21.12
2022-09-30T09:52:48.784Z,22.08
2022-09-30T09:55:15.808Z,20.86
2022-09-30T09:57:42.286Z,18.19
2022-09-30T10:00:39.698Z,18.15
2022-09-30T10:03:12.048Z,19.04
2022-09-30T10:05:41.585Z,19.50
2022-09-30T10:08:09.850Z,19.64
2022-09-30T10:11:03.469Z,18.76
2022-09-30T10:13:39.134Z,19.54
2022-09-30T10:16:05.738Z,20.17
2022-09-30T10:18:33.748Z,21.86
2022-09-30T10:21:05.720Z,22.71
2022-09-30T10:23:36.806Z,23.51
2022-09-30T10:26:03.928Z,23.29
2022-09-30T10:28:31.887Z,24.29
2022-09-30T10:31:02.188Z,24.45
2022-09-30T10:33:30.441Z,25.03
2022-09-30T10:35:56.821Z,25.19
2022-09-30T10:38:29.121Z,24.65
2022-09-30T10:40:55.720Z,24.85
2022-09-30T10:43:27.089Z,23.00
2022-09-30T10:46:20.845Z,21.38
2022-09-30T10:48:40.019Z,22.96
2022-09-30T10:51:06.620Z,24.11
2022-09-30T10:53:33.734Z,25.37
2022-09-30T10:56:01.487Z,25.57
2022-09-30T10:58:27.919Z,25.78
2022-09-30T11:00:57.025Z,25.94
2022-09-30T11:03:35.181Z,25.91
2022-09-30T11:06:01.785Z,25.75
2022-09-30T11:09:00.668Z,26.29
2022-09-30T11:11:47.342Z,25.82
2022-09-30T11:14:32.669Z,27.35
2022-09-30T11:17:21.902Z,28.03
2022-09-30T11:19:52.197Z,26.62
2022-09-30T11:22:18.586Z,25.27
2022-09-30T11:24:45.686Z,25.96
2022-09-30T11:27:15.144Z,27.85
2022-09-30T11:29:47.706Z,26.18
2022-09-30T11:32:23.170Z,26.94
2022-09-30T11:35:07.867Z,25.69
2022-09-30T11:37:54.536Z,23.34
2022-09-30T11:40:30.999Z,25.21
2022-09-30T11:43:16.141Z,24.76
2022-09-30T11:45:54.153Z,22.33
2022-09-30T11:48:29.279Z,23.20
2022-09-30T11:51:17.081Z,22.04
2022-09-30T11:53:56.576Z,20.77
2022-09-30T11:56:29.439Z,23.29
2022-09-30T11:58:58.086Z,25.97
2022-09-30T12:01:26.021Z,24.60
2022-09-30T12:03:55.921Z,24.84
2022-09-30T12:06:28.615Z,26.10
2022-09-30T12:08:59.921Z,27.32
2022-09-30T12:11:43.613Z,27.16
2022-09-30T12:14:18.592Z,27.86
2022-09-30T12:16:45.429Z,26.79
2022-09-30T12:19:14.192Z,27.92
2022-09-30T12:21:42.685Z,29.66
2022-09-30T12:24:23.498Z,32.17
2022-09-30T12:26:49.939Z,34.20
2022-09-30T12:29:40.647Z,32.33
2022-09-30T12:32:30.976Z,30.34
2022-09-30T12:35:07.430Z,30.47
2022-09-30T12:37:36.943Z,32.63
2022-09-30T12:40:06.578Z,33.12
2022-09-30T12:42:45.806Z,33.74
2022-09-30T12:45:21.426Z,34.10
2022-09-30T12:47:51.775Z,32.48
2022-09-30T12:50:19.182Z,32.67
2022-09-30T12:52:45.639Z,31.19
2022-09-30T12:55:22.982Z,26.95
2022-09-30T12:57:49.371Z,29.15
2022-09-30T13:00:17.072Z,28.97
2022-09-30T13:02:44.358Z,27.74
2022-09-30T13:05:29.136Z,25.91
2022-09-30T13:08:04.699Z,23.06
2022-09-30T13:10:34.940Z,21.36
2022-09-30T13:13:10.438Z,20.16
2022-09-30T13:15:40.005Z,19.48
2022-09-30T13:18:32.811Z,18.96
2022-09-30T13:21:05.378Z,18.76
2022-09-30T13:23:47.747Z,18.67
2022-09-30T13:26:29.528Z,18.23
2022-09-30T13:29:02.625Z,18.19
2022-09-30T13:31:32.681Z,18.53
2022-09-30T13:34:02.284Z,18.03
2022-09-30T13:36:51.633Z,17.72
2022-09-30T13:39:31.755Z,17.96
2022-09-30T13:42:07.382Z,17.43
2022-09-30T13:44:44.579Z,18.16
2022-09-30T13:47:22.311Z,19.96
2022-09-30T13:49:52.998Z,22.94
2022-09-30T13:52:24.598Z,24.34
2022-09-30T13:54:51.207Z,21.05
2022-09-30T13:57:19.424Z,20.10
2022-09-30T13:59:45.829Z,18.94
2022-09-30T14:02:12.212Z,17.51
2022-09-30T14:04:41.616Z,16.95
2022-09-30T14:07:12.489Z,16.48
2022-09-30T14:09:47.203Z,15.94
2022-09-30T14:12:14.461Z,15.68
2022-09-30T14:15:02.345Z,15.27
2022-09-30T14:17:38.115Z,15.24
2022-09-30T14:20:24.155Z,15.10
2022-09-30T14:22:50.563Z,15.34
2022-09-30T14:25:17.638Z,15.48
2022-09-30T14:27:56.295Z,15.44
2022-09-30T14:30:23.800Z,15.06
2022-09-30T14:32:52.788Z,14.78
2022-09-30T14:35:20.582Z,14.81
2022-09-30T14:38:05.856Z,15.03
2022-09-30T14:40:33.145Z,15.21
2022-09-30T14:43:04.950Z,14.70
2022-09-30T14:45:33.048Z,14.37
2022-09-30T14:48:07.035Z,14.20
2022-09-30T14:50:37.855Z,14.10
2022-09-30T14:53:04.326Z,13.90
2022-09-30T14:55:31.990Z,13.93
2022-09-30T14:58:18.209Z,13.99
2022-09-30T15:00:45.420Z,13.73
2022-09-30T15:03:12.219Z,13.59
2022-09-30T15:05:39.163Z,13.58
2022-09-30T15:08:25.821Z,13.89
2022-09-30T15:10:55.933Z,14.85
2022-09-30T15:13:23.083Z,14.89
2022-09-30T15:15:49.512Z,14.65
2022-09-30T15:18:25.102Z,14.48
2022-09-30T15:20:55.319Z,14.64
2022-09-30T15:23:24.760Z,14.72
2022-09-30T15:25:52.175Z,14.51
2022-09-30T15:28:18.664Z,14.18
2022-09-30T15:30:45.283Z,14.01
2022-09-30T15:33:12.473Z,13.91
2022-09-30T15:35:38.969Z,13.68
2022-09-30T15:38:08.821Z,13.50
2022-09-30T15:40:48.522Z,13.38
2022-09-30T15:43:16.346Z,13.20
2022-09-30T15:45:43.999Z,13.09
2022-09-30T15:48:13.563Z,12.95
2022-09-30T15:50:41.266Z,12.87
2022-09-30T15:53:22.654Z,12.74
2022-09-30T15:56:15.883Z,12.66
2022-09-30T15:58:46.570Z,12.57
2022-09-30T16:01:18.433Z,12.43
2022-09-30T16:03:47.944Z,12.33
2022-09-30T16:06:14.446Z,12.19
2022-09-30T16:08:44.726Z,12.06
2022-09-30T16:11:19.111Z,11.95
2022-09-30T16:13:46.199Z,11.86
2022-09-30T16:16:18.641Z,11.77
2022-09-30T16:18:45.126Z,11.75
2022-09-30T16:21:27.518Z,11.70
2022-09-30T16:23:54.645Z,11.71
2022-09-30T16:26:24.398Z,11.61
2022-09-30T16:28:51.256Z,11.53
2022-09-30T16:31:17.915Z,11.53
2022-09-30T16:33:44.590Z,11.44
2022-09-30T16:36:11.789Z,11.37
2022-09-30T16:38:38.342Z,11.29
2022-09-30T16:41:04.960Z,11.18
2022-09-30T16:43:31.632Z,11.13
2022-09-30T16:45:58.311Z,10.95
2022-09-30T16:48:26.142Z,10.79
2022-09-30T16:50:55.627Z,10.68
2022-09-30T16:53:22.100Z,10.60
2022-09-30T16:55:48.532Z,10.62
2022-09-30T16:58:15.199Z,10.46
2022-09-30T17:00:44.450Z,10.45
2022-09-30T17:03:15.120Z,10.45
2022-09-30T17:05:42.751Z,10.47
2022-09-30T17:08:09.718Z,10.47
2022-09-30T17:10:36.666Z,10.41
2022-09-30T17:13:03.642Z,10.38
2022-09-30T17:15:30.937Z,10.40
2022-09-30T17:17:58.004Z,10.39
2022-09-30T17:20:24.727Z,10.32
2022-09-30T17:22:51.162Z,10.31
2022-09-30T17:25:17.594Z,10.25
2022-09-30T17:27:46.516Z,10.09
2022-09-30T17:30:13.008Z,10.02
2022-09-30T17:32:39.457Z,10.09
2022-09-30T17:35:08.842Z,10.12
2022-09-30T17:37:37.488Z,10.09
2022-09-30T17:40:26.086Z,10.11
2022-09-30T17:43:07.807Z,10.16
2022-09-30T17:45:34.551Z,10.04
2022-09-30T17:48:01.111Z,9.99
2022-09-30T17:50:27.973Z,9.98
2022-09-30T17:52:54.404Z,10.01
2022-09-30T17:55:20.776Z,9.99
2022-09-30T17:57:47.175Z,10.14
2022-09-30T18:00:13.595Z,10.21
2022-09-30T18:02:41.955Z,10.16
2022-09-30T18:05:08.518Z,10.09
2022-09-30T18:07:34.914Z,10.13
2022-09-30T18:10:02.435Z,10.10
2022-09-30T18:12:28.876Z,10.13
2022-09-30T18:14:56.125Z,10.03
2022-09-30T18:17:23.438Z,9.92
2022-09-30T18:19:49.830Z,9.84
2022-09-30T18:22:16.263Z,9.75
2022-09-30T18:25:01.444Z,9.62
2022-09-30T18:27:33.806Z,9.67
2022-09-30T18:30:01.336Z,9.57
2022-09-30T18:32:28.636Z,9.54
2022-09-30T18:34:56.340Z,9.49
2022-09-30T18:37:23.389Z,9.45
2022-09-30T18:39:49.882Z,9.30
2022-09-30T18:42:18.845Z,9.37
2022-09-30T18:44:45.303Z,9.48
2022-09-30T18:47:11.732Z,9.50
2022-09-30T18:49:38.148Z,9.49
2022-09-30T18:52:04.697Z,9.45
2022-09-30T18:54:31.207Z,9.33
2022-09-30T18:56:57.623Z,9.20
2022-09-30T18:59:24.287Z,9.13
2022-09-30T19:01:51.024Z,9.04
2022-09-30T19:04:17.528Z,8.89
2022-09-30T19:06:44.506Z,8.77
2022-09-30T19:09:11.021Z,8.78
2022-09-30T19:11:37.460Z,8.83
2022-09-30T19:14:05.690Z,8.89
2022-09-30T19:16:36.663Z,8.97
2022-09-30T19:19:05.066Z,9.04
2022-09-30T19:21:35.319Z,9.06
2022-09-30T19:24:03.231Z,9.17
2022-09-30T19:26:30.309Z,9.14
2022-09-30T19:28:57.115Z,9.13
2022-09-30T19:31:24.029Z,9.13
2022-09-30T19:33:56.490Z,9.21
2022-09-30T19:36:24.017Z,9.19
2022-09-30T19:38:51.920Z,9.10
2022-09-30T19:41:20.256Z,8.97
2022-09-30T19:43:50.213Z,8.99
2022-09-30T19:46:16.765Z,9.01
2022-09-30T19:48:43.246Z,9.23
2022-09-30T19:51:13.693Z,9.15
2022-09-30T19:53:42.252Z,9.18
2022-09-30T19:56:16.777Z,9.16
2022-09-30T19:58:44.543Z,9.10
2022-09-30T20:01:11.988Z,9.06
2022-09-30T20:03:38.767Z,8.99
2022-09-30T20:06:06.226Z,9.11
2022-09-30T20:08:33.396Z,9.19
2022-09-30T20:11:07.353Z,9.14
2022-09-30T20:13:33.775Z,9.03
2022-09-30T20:16:01.185Z,8.96
2022-09-30T20:18:28.839Z,8.93
2022-09-30T20:20:55.326Z,9.00
2022-09-30T20:23:22.395Z,9.08
2022-09-30T20:25:49.159Z,9.03
2022-09-30T20:28:15.765Z,8.97
2022-09-30T20:30:48.239Z,8.87
2022-09-30T20:33:15.537Z,8.90
2022-09-30T20:35:42.008Z,8.84
2022-09-30T20:38:12.307Z,8.78
2022-09-30T20:40:40.107Z,8.94
2022-09-30T20:43:07.403Z,8.87
2022-09-30T20:45:34.263Z,8.80
2022-09-30T20:48:01.013Z,8.77
2022-09-30T20:50:36.514Z,8.83
2022-09-30T20:53:10.304Z,8.75
2022-09-30T20:55:38.026Z,8.73
2022-09-30T20:58:04.989Z,8.67
2022-09-30T21:00:32.244Z,8.70
2022-09-30T21:02:58.744Z,8.61
2022-09-30T21:05:25.359Z,8.65
2022-09-30T21:07:51.826Z,8.55
2022-09-30T21:10:18.232Z,8.50
2022-09-30T21:12:45.035Z,8.49
2022-09-30T21:15:12.149Z,8.47
2022-09-30T21:17:40.336Z,8.83
2022-09-30T21:20:07.085Z,8.78
2022-09-30T21:22:33.490Z,8.79
2022-09-30T21:24:59.907Z,8.68
2022-09-30T21:27:26.281Z,8.68
2022-09-30T21:29:53.111Z,8.61
2022-09-30T21:32:20.525Z,8.71
2022-09-30T21:34:46.949Z,8.86
2022-09-30T21:37:13.369Z,8.77
2022-09-30T21:39:39.800Z,8.69
2022-09-30T21:42:06.176Z,8.62
2022-09-30T21:44:32.645Z,8.53
2022-09-30T21:46:59.076Z,8.61
2022-09-30T21:49:25.556Z,8.62
2022-09-30T21:51:53.370Z,8.55
2022-09-30T21:54:19.848Z,8.58
2022-09-30T21:56:46.379Z,8.76
2022-09-30T21:59:12.984Z,8.90
2022-09-30T22:01:39.556Z,8.94
2022-09-30T22:04:07.087Z,8.92
2022-09-30T22:06:33.552Z,8.84
2022-09-30T22:09:03.031Z,8.77
2022-09-30T22:11:30.197Z,8.73
2022-09-30T22:13:57.557Z,8.86
2022-09-30T22:16:27.038Z,8.85
2022-09-30T22:18:54.156Z,8.82
2022-09-30T22:21:20.569Z,8.97
2022-09-30T22:23:47.662Z,9.12
2022-09-30T22:26:18.518Z,9.15
2022-09-30T22:28:45.618Z,9.16
2022-09-30T22:31:19.432Z,9.17
2022-09-30T22:34:05.410Z,9.09
2022-09-30T22:36:50.526Z,9.07
2022-09-30T22:39:18.089Z,9.16
2022-09-30T22:41:45.048Z,9.14
2022-09-30T22:44:11.600Z,9.08
2022-09-30T22:46:38.371Z,9.03
2022-09-30T22:49:05.723Z,9.17
2022-09-30T22:51:35.416Z,9.16
2022-09-30T22:54:03.402Z,9.10
2022-09-30T22:56:30.418Z,9.08
2022-09-30T22:58:56.894Z,9.08
2022-09-30T23:01:23.298Z,9.16
2022-09-30T23:03:55.760Z,9.06
2022-09-30T23:06:22.931Z,9.10
2022-09-30T23:08:49.486Z,9.08
2022-09-30T23:11:19.432Z,9.12
2022-09-30T23:13:46.390Z,9.11
2022-09-30T23:16:13.195Z,9.17
2022-09-30T23:18:42.607Z,9.17
2022-09-30T23:21:13.511Z,9.14
2022-09-30T23:23:40.290Z,9.17
2022-09-30T23:26:25.915Z,9.06
2022-09-30T23:28:52.812Z,9.06
2022-09-30T23:31:19.330Z,9.02
2022-09-30T23:33:47.120Z,9.10
2022-09-30T23:36:15.087Z,9.05
2022-09-30T23:38:41.636Z,9.00
2022-09-30T23:41:08.221Z,9.04
2022-09-30T23:43:35.086Z,9.04
2022-09-30T23:46:01.718Z,9.17
2022-09-30T23:48:28.344Z,9.10
2022-09-30T23:50:54.866Z,9.03
2022-09-30T23:53:22.035Z,9.05
2022-09-30T23:55:59.166Z,9.06
2022-09-30T23:58:26.165Z,9.00
